Time;durP1;ratioP1;P1;durP2;ratioP2;P2;SDS_P1;SDS_P2;PMS_P1;PMS_P2;Temp;Humidity;BMP_temperature;BMP_pressure;BME280_temperature;BME280_humidity;BME280_pressure;Samples;Min_cycle;Max_cycle;Signal;HPM_P1;HPM_P2
2023/01/24 00:00:58;;;;;;;14.90;7.33;;;;;;;4.82;88.34;98240.13;5066306;28;20187;-72
2023/01/24 00:03:25;;;;;;;15.00;7.13;;;;;;;4.87;88.11;98250.38;5065413;28;20190;-72
2023/01/24 00:05:53;;;;;;;16.07;8.13;;;;;;;4.68;88.42;98234.22;5067263;28;20220;-73
2023/01/24 00:08:22;;;;;;;16.80;7.43;;;;;;;4.86;88.08;98239.25;5065788;28;20245;-72
2023/01/24 00:11:08;;;;;;;16.20;7.33;;;;;;;4.90;87.18;98240.97;5056102;28;20193;-72
2023/01/24 00:13:36;;;;;;;12.67;6.73;;;;;;;4.97;87.82;98242.66;5070007;28;20202;-73
2023/01/24 00:16:15;;;;;;;15.27;7.80;;;;;;;5.09;87.30;98243.47;5066503;28;20196;-73
2023/01/24 00:18:42;;;;;;;16.13;8.17;;;;;;;4.78;87.16;98240.19;5067041;28;20240;-72
2023/01/24 00:21:13;;;;;;;14.53;7.40;;;;;;;4.98;87.90;98248.66;5065550;28;20292;-72
2023/01/24 00:23:43;;;;;;;15.67;7.73;;;;;;;4.82;87.66;98260.66;5066557;28;20209;-73
2023/01/24 00:26:11;;;;;;;18.17;8.50;;;;;;;4.73;87.47;98252.16;5066709;28;20312;-73
2023/01/24 00:28:40;;;;;;;18.33;8.60;;;;;;;4.84;87.54;98256.38;5066235;28;20695;-72
2023/01/24 00:31:07;;;;;;;16.07;8.13;;;;;;;4.82;88.00;98247.00;5065962;28;20248;-72
2023/01/24 00:33:34;;;;;;;16.70;8.43;;;;;;;4.75;87.42;98250.44;5065336;28;20275;-73
2023/01/24 00:36:02;;;;;;;17.50;8.50;;;;;;;4.93;87.14;98252.94;5066758;28;20202;-72
2023/01/24 00:38:31;;;;;;;13.07;6.60;;;;;;;4.67;87.85;98242.78;5065179;28;20299;-73
2023/01/24 00:40:59;;;;;;;14.23;7.50;;;;;;;4.76;89.37;98258.13;5065462;28;20187;-72
2023/01/24 00:43:27;;;;;;;17.67;7.70;;;;;;;4.67;89.67;98252.19;5082635;28;20187;-72
2023/01/24 00:45:55;;;;;;;16.13;7.97;;;;;;;4.62;89.59;98257.31;5066112;28;20218;-71
2023/01/24 00:48:22;;;;;;;15.87;7.90;;;;;;;4.75;89.91;98256.44;5082564;28;20613;-71
2023/01/24 00:50:49;;;;;;;17.30;8.23;;;;;;;4.87;90.20;98258.09;5081296;28;20229;-71
2023/01/24 00:53:19;;;;;;;15.97;9.07;;;;;;;4.84;89.48;98253.81;5066555;28;20760;-71
2023/01/24 00:55:48;;;;;;;16.70;7.90;;;;;;;4.96;89.08;98252.94;5066429;28;20185;-71
2023/01/24 00:58:16;;;;;;;13.60;7.60;;;;;;;4.86;88.55;98239.25;5081935;28;20267;-72
2023/01/24 01:00:43;;;;;;;14.37;8.23;;;;;;;4.81;88.38;98248.72;5082180;28;20183;-72
2023/01/24 01:03:13;;;;;;;14.57;7.63;;;;;;;4.77;88.68;98241.03;5064884;28;20190;-73
2023/01/24 01:05:42;;;;;;;16.30;7.90;;;;;;;4.68;88.93;98241.03;5065470;28;20214;-72
2023/01/24 01:08:10;;;;;;;16.70;7.73;;;;;;;4.63;88.53;98235.97;5066321;28;20270;-72
2023/01/24 01:10:38;;;;;;;17.03;7.37;;;;;;;4.68;88.32;98238.47;5066970;28;20186;-73
2023/01/24 01:13:05;;;;;;;18.03;9.13;;;;;;;4.83;88.09;98247.00;5082109;28;20187;-73
2023/01/24 01:15:33;;;;;;;14.37;8.83;;;;;;;4.88;87.33;98242.69;5066337;28;20190;-74
2023/01/24 01:18:00;;;;;;;16.23;8.73;;;;;;;4.83;88.05;98225.59;5066542;28;20193;-73
2023/01/24 01:20:27;;;;;;;23.00;10.13;;;;;;;4.83;89.14;98230.72;5076039;28;20670;-71
2023/01/24 01:22:54;;;;;;;19.00;8.77;;;;;;;4.70;88.49;98236.75;5085475;28;20233;-71
2023/01/24 01:25:22;;;;;;;17.87;9.10;;;;;;;4.60;88.66;98241.09;5086179;28;20712;-73
2023/01/24 01:27:50;;;;;;;14.30;8.73;;;;;;;4.50;88.94;98236.84;5085215;28;20294;-73
2023/01/24 01:30:18;;;;;;;19.10;10.50;;;;;;;4.67;87.77;98242.78;5084918;28;20681;-71
2023/01/24 01:32:46;;;;;;;19.47;10.00;;;;;;;4.66;88.05;98240.19;5119370;28;20306;-71
2023/01/24 01:35:13;;;;;;;18.37;9.30;;;;;;;4.71;87.74;98248.75;5085316;28;20320;-72
2023/01/24 01:37:40;;;;;;;17.33;9.17;;;;;;;4.61;87.30;98226.56;5068506;28;20629;-71
2023/01/24 01:40:08;;;;;;;19.20;9.07;;;;;;;4.64;87.29;98242.78;5090767;28;20186;-73
2023/01/24 01:42:47;;;;;;;17.13;9.73;;;;;;;4.69;87.43;98250.47;5089603;28;20301;-71
2023/01/24 01:45:30;;;;;;;17.80;9.30;;;;;;;4.47;88.76;98241.97;5090374;28;20654;-71
2023/01/24 01:47:58;;;;;;;19.13;9.07;;;;;;;4.30;87.91;98235.19;5088576;28;20267;-70
2023/01/24 01:50:36;;;;;;;20.67;10.70;;;;;;;4.42;89.32;98230.88;5071309;28;20254;-70
2023/01/24 01:53:04;;;;;;;21.50;10.90;;;;;;;4.50;89.39;98241.97;5090468;28;20192;-71
2023/01/24 01:55:35;;;;;;;20.83;10.73;;;;;;;4.65;89.20;98247.06;5089091;28;20191;-72
2023/01/24 01:58:03;;;;;;;21.83;10.67;;;;;;;4.84;89.30;98246.13;5089039;28;20192;-71
2023/01/24 02:00:31;;;;;;;19.20;9.93;;;;;;;4.82;89.46;98245.28;5089578;28;20212;-71
2023/01/24 02:05:58;;;;;;;24.07;11.03;;;;;;;4.53;90.10;98249.66;5089966;28;20190;-71
2023/01/24 02:08:26;;;;;;;25.93;12.07;;;;;;;4.59;90.35;98246.22;5089054;28;20274;-73
2023/01/24 02:13:44;;;;;;;23.73;11.40;;;;;;;4.63;90.77;98248.78;5089347;28;20229;-73
2023/01/24 02:16:12;;;;;;;28.13;11.80;;;;;;;4.53;90.78;98249.66;5089273;28;20193;-73
2023/01/24 02:18:42;;;;;;;24.00;11.13;;;;;;;4.41;91.22;98234.28;5089605;28;20190;-72
2023/01/24 02:21:15;;;;;;;23.57;11.77;;;;;;;4.60;91.00;98250.47;5087414;28;20200;-72
2023/01/24 02:23:59;;;;;;;24.53;12.03;;;;;;;4.66;90.44;98251.31;5088649;28;20652;-73
2023/01/24 02:26:28;;;;;;;22.00;11.63;;;;;;;4.70;90.62;98252.16;5087724;28;20219;-73
2023/01/24 02:28:55;;;;;;;22.93;11.90;;;;;;;4.80;90.28;98259.81;5087848;28;20578;-73
2023/01/24 02:31:23;;;;;;;24.33;12.17;;;;;;;4.51;91.16;98255.66;5089346;28;20269;-71
2023/01/24 02:33:50;;;;;;;26.00;12.17;;;;;;;4.53;91.99;98251.38;5088622;28;20193;-72
2023/01/24 02:36:34;;;;;;;21.20;11.70;;;;;;;4.56;91.70;98249.66;5088070;28;20197;-72
2023/01/24 02:39:26;;;;;;;23.57;12.10;;;;;;;4.48;92.12;98245.38;5086932;28;20228;-72
2023/01/24 02:42:07;;;;;;;25.57;12.13;;;;;;;4.60;92.74;98248.78;5088736;28;20669;-72
2023/01/24 02:44:45;;;;;;;27.43;12.23;;;;;;;4.62;92.20;98253.91;5070950;28;20588;-72
2023/01/24 02:47:12;;;;;;;25.43;12.87;;;;;;;4.51;92.06;98248.81;5086844;28;20837;-72
2023/01/24 02:49:39;;;;;;;21.77;11.43;;;;;;;4.50;93.16;98257.34;5087468;28;20187;-71
2023/01/24 02:54:53;;;;;;;20.17;11.30;;;;;;;4.74;92.47;98256.44;5087464;28;20199;-71
2023/01/24 03:00:08;;;;;;;25.93;12.57;;;;;;;4.60;92.03;98256.47;5067740;28;20182;-72
2023/01/24 03:02:37;;;;;;;21.73;11.33;;;;;;;4.55;92.93;98247.94;5067422;28;20200;-71
2023/01/24 03:05:04;;;;;;;22.37;11.37;;;;;;;4.62;91.92;98252.19;5100366;28;20274;-72
2023/01/24 03:07:41;;;;;;;19.20;11.13;;;;;;;4.62;91.57;98249.63;5083863;28;20219;-72
2023/01/24 03:10:12;;;;;;;20.87;11.13;;;;;;;4.47;91.90;98244.53;5083241;28;20248;-72
2023/01/24 03:34:49;;;;;;;20.33;11.37;;;;;;;4.52;92.23;98241.97;5065903;28;20262;-72
2023/01/24 03:40:15;;;;;;;21.30;11.63;;;;;;;4.44;91.95;98239.44;5082950;28;20179;-73
2023/01/24 03:42:50;;;;;;;24.83;12.13;;;;;;;4.36;92.69;98243.72;5066241;28;20793;-73
2023/01/24 03:45:31;;;;;;;20.90;12.13;;;;;;;4.47;92.62;98243.69;5083440;28;20641;-72
2023/01/24 03:48:00;;;;;;;21.30;12.33;;;;;;;4.52;92.61;98249.66;5066772;28;20249;-73
2023/01/24 03:53:29;;;;;;;28.73;14.27;;;;;;;4.43;91.80;98247.13;5066433;28;20190;-74
2023/01/24 03:56:00;;;;;;;21.13;11.20;;;;;;;4.28;92.01;98258.28;5066101;28;20261;-72
2023/01/24 03:58:32;;;;;;;22.43;11.63;;;;;;;4.14;92.33;98252.31;5066569;28;20202;-74
2023/01/24 04:01:04;;;;;;;19.93;11.00;;;;;;;4.08;92.50;98254.88;5064665;28;20244;-73
2023/01/24 04:03:49;;;;;;;19.80;9.90;;;;;;;4.12;91.88;98262.53;5066231;28;20197;-74
2023/01/24 04:06:18;;;;;;;22.27;10.53;;;;;;;3.94;92.52;98256.56;5065699;28;20624;-74
2023/01/24 04:08:45;;;;;;;20.77;10.57;;;;;;;4.02;92.42;98259.97;5065935;28;20289;-73
2023/01/24 04:11:12;;;;;;;22.03;9.83;;;;;;;4.01;92.97;98264.28;5083210;28;20193;-74
2023/01/24 04:13:39;;;;;;;20.70;11.07;;;;;;;4.07;92.89;98265.97;5065404;28;20185;-74
2023/01/24 04:16:07;;;;;;;20.43;10.23;;;;;;;3.90;92.52;98255.72;5086424;28;20289;-74
2023/01/24 04:19:00;;;;;;;22.23;10.47;;;;;;;3.92;92.31;98255.72;5074959;28;20600;-73
2023/01/24 04:21:28;;;;;;;24.50;13.07;;;;;;;4.01;91.88;98268.53;5086130;28;20185;-73
2023/01/24 04:23:56;;;;;;;20.97;11.10;;;;;;;3.92;91.49;98248.91;5069150;28;20189;-73
2023/01/24 04:26:24;;;;;;;22.23;10.40;;;;;;;3.96;91.38;98265.13;5085511;28;20192;-73
2023/01/24 04:28:53;;;;;;;25.83;11.57;;;;;;;3.89;90.84;98260.88;5069487;28;20193;-74
2023/01/24 04:31:20;;;;;;;23.17;11.27;;;;;;;3.69;91.55;98270.25;5085159;28;20246;-73
2023/01/24 04:34:11;;;;;;;21.83;10.40;;;;;;;3.73;91.88;98265.09;5086089;28;20660;-73
2023/01/24 04:36:39;;;;;;;22.73;11.37;;;;;;;3.79;91.58;98261.72;5080756;28;20203;-74
2023/01/24 04:39:06;;;;;;;24.47;11.83;;;;;;;3.65;91.68;98261.69;5056916;28;20229;-73
2023/01/24 04:41:47;;;;;;;24.97;11.27;;;;;;;3.66;91.69;98260.84;5099382;28;20199;-74
2023/01/24 04:44:15;;;;;;;26.10;12.90;;;;;;;3.49;92.04;98259.09;5081572;28;20240;-73
2023/01/24 04:46:43;;;;;;;23.43;11.47;;;;;;;3.69;91.50;98260.00;5099661;28;20548;-72
2023/01/24 04:49:10;;;;;;;27.37;11.37;;;;;;;3.70;91.84;98264.25;5048083;28;20688;-73
2023/01/24 04:51:42;;;;;;;22.90;11.60;;;;;;;3.58;91.52;98262.56;5073841;28;20219;-73
2023/01/24 04:54:16;;;;;;;24.83;11.00;;;;;;;3.56;91.96;98254.03;5082111;28;20703;-74
2023/01/24 04:56:46;;;;;;;24.83;12.33;;;;;;;3.48;92.37;98263.41;5068286;28;20287;-73
2023/01/24 04:59:14;;;;;;;24.57;11.27;;;;;;;3.45;92.27;98244.59;5086070;28;20219;-74
2023/01/24 05:01:42;;;;;;;22.10;11.87;;;;;;;3.59;91.71;98258.25;5084800;28;20574;-75
2023/01/24 05:04:22;;;;;;;21.37;10.70;;;;;;;3.63;90.38;98265.09;5085786;28;20655;-73
2023/01/24 05:06:49;;;;;;;24.03;11.57;;;;;;;3.52;90.99;98262.56;5084191;28;20200;-74
2023/01/24 05:09:16;;;;;;;23.60;11.50;;;;;;;3.54;91.05;98260.84;5084763;28;20583;-72
2023/01/24 05:11:49;;;;;;;22.80;11.73;;;;;;;3.59;91.17;98268.50;5086542;28;20192;-71
2023/01/24 05:14:17;;;;;;;24.17;11.73;;;;;;;3.62;91.12;98259.16;5088639;28;20219;-74
2023/01/24 05:16:44;;;;;;;24.53;10.87;;;;;;;3.63;90.44;98271.09;5089911;28;20180;-73
2023/01/24 05:19:11;;;;;;;21.70;10.07;;;;;;;3.64;90.83;98267.69;5089962;28;21003;-72
2023/01/24 05:21:38;;;;;;;19.77;9.60;;;;;;;3.52;90.01;98277.06;5090724;28;20292;-71
2023/01/24 05:24:06;;;;;;;20.10;10.17;;;;;;;3.50;91.16;98281.31;5088712;28;20735;-71
2023/01/24 05:26:33;;;;;;;23.57;10.97;;;;;;;3.64;90.06;98277.06;5089171;28;20212;-71
2023/01/24 05:29:00;;;;;;;18.00;9.97;;;;;;;3.67;90.38;98282.22;5088541;28;20221;-72
2023/01/24 05:31:29;;;;;;;17.73;10.37;;;;;;;3.60;90.48;98280.47;5088722;28;20242;-73
2023/01/24 05:33:57;;;;;;;24.97;12.10;;;;;;;3.67;90.26;98289.88;5072808;28;20201;-72
2023/01/24 05:36:25;;;;;;;25.10;12.73;;;;;;;3.60;90.03;98281.34;5088348;28;20264;-73
2023/01/24 05:38:53;;;;;;;25.33;12.10;;;;;;;3.71;89.78;98281.34;5089113;28;20224;-73
2023/01/24 05:41:20;;;;;;;25.03;13.43;;;;;;;3.65;89.85;98289.00;5088401;28;20615;-72
2023/01/24 05:43:50;;;;;;;26.50;13.50;;;;;;;3.60;90.15;98286.47;5071822;28;20281;-73
2023/01/24 05:46:22;;;;;;;22.20;10.83;;;;;;;3.71;89.01;98299.28;5088974;28;20259;-73
2023/01/24 05:49:02;;;;;;;22.53;10.80;;;;;;;3.42;88.57;98257.41;5088053;28;20217;-72
2023/01/24 05:51:29;;;;;;;23.07;10.80;;;;;;;3.73;89.47;98307.81;5106178;28;20189;-72
2023/01/24 05:53:56;;;;;;;22.03;11.27;;;;;;;3.66;89.66;98308.66;5071289;28;20835;-72
2023/01/24 05:56:41;;;;;;;22.57;11.73;;;;;;;3.69;89.42;98306.13;5089954;28;20219;-72
2023/01/24 05:59:10;;;;;;;22.70;12.27;;;;;;;3.67;89.64;98318.06;5089801;28;20195;-73
2023/01/24 06:01:37;;;;;;;21.97;12.17;;;;;;;3.57;88.34;98308.63;5088048;28;20185;-73
2023/01/24 06:04:05;;;;;;;21.43;10.20;;;;;;;3.53;89.12;98310.34;5088726;28;20177;-72
2023/01/24 06:06:32;;;;;;;30.20;14.07;;;;;;;3.71;88.37;98309.53;5087853;28;20184;-72
2023/01/24 06:08:59;;;;;;;26.33;13.00;;;;;;;3.66;88.44;98312.06;5089945;28;20314;-72
2023/01/24 06:11:27;;;;;;;26.20;13.27;;;;;;;3.61;88.04;98300.97;5121701;27;20821;-73
2023/01/24 06:14:04;;;;;;;20.90;10.97;;;;;;;3.59;87.27;98299.25;5088109;28;20215;-73
2023/01/24 06:16:31;;;;;;;21.87;10.70;;;;;;;3.53;86.78;98310.34;5088039;28;20199;-71
2023/01/24 06:18:58;;;;;;;17.83;9.73;;;;;;;3.43;87.83;98310.31;5087594;28;20196;-71
2023/01/24 06:21:53;;;;;;;21.33;10.13;;;;;;;3.43;87.48;98316.28;5088339;28;20174;-72
2023/01/24 06:24:26;;;;;;;22.17;10.40;;;;;;;3.41;88.01;98319.69;5069668;28;20191;-71
2023/01/24 06:27:31;;;;;;;23.67;11.27;;;;;;;3.43;88.64;98323.97;5025587;28;20235;-72
2023/01/24 06:29:59;;;;;;;21.97;11.80;;;;;;;3.42;88.44;98316.28;5026521;28;20588;-72
2023/01/24 06:32:53;;;;;;;19.17;9.80;;;;;;;3.46;87.98;98312.88;5057513;28;20264;-75
2023/01/24 06:35:36;;;;;;;18.67;10.07;;;;;;;3.45;89.25;98308.59;5089271;28;20189;-74
2023/01/24 06:38:03;;;;;;;21.63;10.63;;;;;;;3.44;89.01;98314.59;5088872;28;20229;-74
2023/01/24 06:40:30;;;;;;;18.00;9.30;;;;;;;3.38;88.36;98317.13;5088770;28;20213;-75
2023/01/24 06:42:57;;;;;;;21.43;9.97;;;;;;;3.27;88.40;98317.09;5088101;28;20219;-73
2023/01/24 06:45:25;;;;;;;17.87;9.87;;;;;;;3.02;89.29;98317.84;5088260;28;20193;-74
2023/01/24 06:47:52;;;;;;;19.13;10.73;;;;;;;3.10;89.88;98323.84;5089176;28;20255;-73
2023/01/24 06:50:21;;;;;;;19.63;10.33;;;;;;;3.12;89.39;98305.09;5088186;28;20194;-73
2023/01/24 06:52:49;;;;;;;16.87;10.07;;;;;;;3.36;88.74;98318.84;5089466;28;20180;-73
2023/01/24 06:55:16;;;;;;;15.10;9.37;;;;;;;3.29;87.92;98316.25;5088555;28;20676;-73
2023/01/24 06:57:46;;;;;;;15.93;9.33;;;;;;;3.09;88.28;98294.84;5087171;28;20740;-73
2023/01/24 07:00:14;;;;;;;17.03;8.27;;;;;;;3.35;88.53;98323.09;5088903;28;20279;-73
2023/01/24 07:02:41;;;;;;;16.23;9.70;;;;;;;3.49;87.70;98323.13;5086224;28;20253;-73
2023/01/24 07:05:09;;;;;;;17.27;8.83;;;;;;;3.53;87.23;98324.84;5087550;28;20274;-72
2023/01/24 07:07:36;;;;;;;16.17;8.13;;;;;;;3.66;86.98;98330.00;5086246;28;20216;-71
2023/01/24 07:10:04;;;;;;;10.90;7.13;;;;;;;3.47;86.56;98319.69;5088479;28;20204;-73
2023/01/24 07:12:31;;;;;;;12.30;6.97;;;;;;;3.17;87.18;98321.31;5086587;28;20181;-72
2023/01/24 07:14:58;;;;;;;14.33;7.97;;;;;;;3.30;87.16;98324.78;5088475;28;20208;-72
2023/01/24 07:17:25;;;;;;;20.57;9.73;;;;;;;3.47;87.28;98342.75;5087140;28;20201;-72
2023/01/24 07:19:53;;;;;;;20.37;8.77;;;;;;;3.48;87.03;98341.91;5069016;28;20246;-73
2023/01/24 07:22:20;;;;;;;20.67;9.57;;;;;;;3.48;86.74;98352.16;5070118;28;20287;-71
2023/01/24 07:24:49;;;;;;;12.23;7.33;;;;;;;3.46;87.08;98348.72;5085641;28;20217;-72
2023/01/24 07:27:16;;;;;;;21.97;10.77;;;;;;;3.57;86.87;98352.16;5070306;28;20188;-72
2023/01/24 07:29:44;;;;;;;24.27;12.20;;;;;;;3.59;86.43;98350.47;5087297;28;20208;-72
2023/01/24 07:32:11;;;;;;;31.50;10.63;;;;;;;3.36;87.38;98326.53;5087633;28;20212;-73
2023/01/24 07:34:39;;;;;;;17.53;7.20;;;;;;;3.51;87.07;98353.00;5087848;28;20860;-73
2023/01/24 07:37:07;;;;;;;13.57;7.07;;;;;;;3.29;87.38;98352.09;5087248;28;20220;-73
2023/01/24 07:39:34;;;;;;;13.27;7.43;;;;;;;3.39;87.34;98354.66;5086384;28;20761;-74
2023/01/24 07:42:01;;;;;;;18.83;8.47;;;;;;;3.33;87.03;98337.59;5086651;28;20188;-72
2023/01/24 07:44:28;;;;;;;14.03;6.60;;;;;;;3.17;87.22;98372.50;5086884;28;20180;-72
2023/01/24 07:46:55;;;;;;;15.70;8.70;;;;;;;3.30;87.92;98363.16;5086850;28;21126;-74
2023/01/24 07:49:22;;;;;;;19.27;9.37;;;;;;;3.44;87.79;98368.34;5086021;28;20273;-73
2023/01/24 07:51:52;;;;;;;15.27;8.33;;;;;;;3.32;87.53;98353.78;5087471;28;20196;-73
2023/01/24 07:54:19;;;;;;;18.20;9.63;;;;;;;3.51;87.44;98370.06;5085510;28;20219;-72
2023/01/24 07:56:47;;;;;;;19.07;8.73;;;;;;;3.65;86.89;98363.28;5087413;28;20189;-73
2023/01/24 07:59:14;;;;;;;16.23;8.57;;;;;;;3.38;86.05;98352.97;5084960;28;20216;-72
2023/01/24 08:01:41;;;;;;;20.50;9.60;;;;;;;3.65;86.63;98371.81;5087116;28;20731;-72
2023/01/24 08:04:09;;;;;;;13.37;7.17;;;;;;;3.52;85.83;98364.13;5086154;28;20185;-71
2023/01/24 08:06:36;;;;;;;15.27;7.20;;;;;;;3.59;85.96;98376.06;5087263;28;20579;-73
2023/01/24 08:09:03;;;;;;;19.60;7.27;;;;;;;3.50;85.32;98376.06;5085415;28;20303;-73
2023/01/24 08:11:30;;;;;;;11.93;7.10;;;;;;;3.45;86.52;98376.03;5086769;28;20200;-73
2023/01/24 08:13:57;;;;;;;15.70;7.40;;;;;;;3.60;86.35;98393.16;5085660;28;20263;-72
2023/01/24 08:16:26;;;;;;;15.57;7.77;;;;;;;3.52;85.60;98389.72;5084503;28;20207;-72
2023/01/24 08:18:53;;;;;;;14.03;8.13;;;;;;;3.54;85.89;98396.56;5085548;28;20660;-72
2023/01/24 08:21:20;;;;;;;14.63;7.93;;;;;;;3.47;85.96;98406.75;5086236;28;20681;-71
2023/01/24 08:23:47;;;;;;;17.60;8.40;;;;;;;3.47;86.10;98407.63;5086899;28;20189;-74
2023/01/24 08:26:14;;;;;;;13.63;8.03;;;;;;;3.50;86.03;98402.53;5086076;28;20184;-72
2023/01/24 08:28:42;;;;;;;16.20;10.00;;;;;;;3.49;85.89;98398.25;5085021;28;20217;-72
2023/01/24 08:31:09;;;;;;;16.17;7.90;;;;;;;3.46;85.47;98412.75;5068863;28;20245;-73
2023/01/24 08:33:37;;;;;;;24.60;11.83;;;;;;;3.58;85.42;98405.09;5067120;28;20310;-73
2023/01/24 08:36:05;;;;;;;19.27;9.97;;;;;;;3.69;84.88;98409.41;5086607;28;20188;-72
2023/01/24 08:38:32;;;;;;;17.10;7.40;;;;;;;3.52;84.80;98415.31;5084853;28;20213;-72
2023/01/24 08:41:03;;;;;;;18.53;8.43;;;;;;;3.60;85.01;98408.53;5086762;28;20184;-73
2023/01/24 08:43:30;;;;;;;16.47;8.63;;;;;;;3.64;84.93;98405.97;5067844;28;20279;-71
2023/01/24 08:45:57;;;;;;;19.73;8.33;;;;;;;3.68;84.85;98410.25;5085939;28;20661;-72
2023/01/24 08:48:24;;;;;;;15.17;8.77;;;;;;;3.74;84.71;98412.84;5084818;28;20688;-73
2023/01/24 08:50:51;;;;;;;14.63;8.83;;;;;;;3.79;83.96;98405.19;5084115;28;20236;-73
2023/01/24 08:53:18;;;;;;;17.77;8.93;;;;;;;3.52;84.02;98376.91;5084919;28;20631;-73
2023/01/24 08:55:49;;;;;;;22.90;12.00;;;;;;;3.71;84.34;98406.88;5083975;28;20208;-72
2023/01/24 08:58:16;;;;;;;20.33;9.10;;;;;;;2.97;86.21;98360.44;5086537;28;20185;-72
2023/01/24 09:00:43;;;;;;;13.70;8.07;;;;;;;3.14;87.20;98408.31;5085676;28;20709;-73
2023/01/24 09:03:11;;;;;;;16.77;8.73;;;;;;;3.14;86.62;98407.47;5086508;28;20193;-73
2023/01/24 09:05:38;;;;;;;16.33;8.83;;;;;;;3.21;86.36;98399.81;5084812;28;20215;-73
2023/01/24 09:08:06;;;;;;;22.07;10.73;;;;;;;3.45;86.14;98399.06;5085686;28;20239;-72
2023/01/24 09:10:33;;;;;;;18.00;9.30;;;;;;;3.33;86.14;98404.16;5086245;28;20203;-74
2023/01/24 09:13:01;;;;;;;18.53;10.20;;;;;;;3.17;87.02;98398.09;5067188;28;20311;-73
2023/01/24 09:15:28;;;;;;;19.47;10.27;;;;;;;3.04;88.22;98393.78;5068650;28;20241;-72
2023/01/24 09:17:55;;;;;;;24.80;13.10;;;;;;;3.11;87.59;98375.03;5085333;28;20181;-72
2023/01/24 09:20:22;;;;;;;18.33;8.20;;;;;;;3.04;88.28;98391.22;5086146;28;20216;-72
2023/01/24 09:22:49;;;;;;;14.10;7.23;;;;;;;3.02;88.46;98382.69;5085660;28;20189;-72
2023/01/24 09:25:17;;;;;;;18.50;9.87;;;;;;;2.93;88.39;98346.81;5085644;28;20184;-73
2023/01/24 09:27:44;;;;;;;17.60;9.03;;;;;;;3.12;88.54;98366.53;5086281;28;20195;-72
2023/01/24 09:30:11;;;;;;;16.80;9.13;;;;;;;3.25;88.19;98375.09;5083565;28;20204;-73
2023/01/24 09:32:38;;;;;;;16.43;8.47;;;;;;;3.40;88.14;98376.88;5068203;28;20199;-69
2023/01/24 09:35:06;;;;;;;18.67;9.60;;;;;;;3.36;88.06;98362.34;5083830;28;20239;-73
2023/01/24 09:37:33;;;;;;;15.73;9.37;;;;;;;3.64;87.27;98379.50;5068126;28;20210;-72
2023/01/24 09:40:00;;;;;;;26.03;13.33;;;;;;;3.62;86.66;98376.94;5085446;28;20191;-71
2023/01/24 09:42:40;;;;;;;19.87;10.27;;;;;;;3.36;86.56;98382.84;5101703;28;20208;-72
2023/01/24 09:45:18;;;;;;;18.77;11.50;;;;;;;3.30;87.79;98379.38;5068125;28;20241;-73
2023/01/24 09:47:56;;;;;;;32.83;12.87;;;;;;;3.38;87.06;98358.09;5083322;28;20720;-73
2023/01/24 09:50:26;;;;;;;23.70;13.00;;;;;;;3.69;87.03;98380.41;5085877;28;20288;-73
2023/01/24 09:52:56;;;;;;;23.30;12.37;;;;;;;3.74;86.50;98366.72;5085444;28;20189;-72
2023/01/24 09:55:39;;;;;;;19.57;10.10;;;;;;;3.77;86.90;98374.41;5085809;28;20177;-71
2023/01/24 09:58:18;;;;;;;17.43;10.07;;;;;;;3.86;85.86;98374.44;5085969;28;20181;-73
2023/01/24 10:00:46;;;;;;;16.57;8.50;;;;;;;3.75;85.68;98363.31;5088516;28;20188;-72
2023/01/24 10:03:22;;;;;;;16.40;8.40;;;;;;;3.77;86.23;98366.72;5088532;28;20208;-72
2023/01/24 10:05:54;;;;;;;17.40;9.67;;;;;;;3.60;87.05;98357.31;5088709;28;20196;-73
2023/01/24 10:08:33;;;;;;;18.47;10.17;;;;;;;3.60;86.84;98362.44;5087689;28;20324;-70
2023/01/24 10:11:08;;;;;;;19.70;10.43;;;;;;;3.77;86.83;98373.56;5089368;28;20617;-71
2023/01/24 10:13:53;;;;;;;16.33;9.57;;;;;;;3.75;85.78;98352.22;5088260;28;20635;-71
2023/01/24 10:16:32;;;;;;;13.20;7.73;;;;;;;3.71;87.46;98373.56;5089783;28;20196;-72
2023/01/24 10:19:14;;;;;;;17.83;8.13;;;;;;;3.74;87.72;98360.75;5088669;28;20621;-71
2023/01/24 10:22:07;;;;;;;15.90;9.53;;;;;;;3.87;87.06;98365.06;5087286;28;20198;-73
2023/01/24 10:24:39;;;;;;;19.90;10.00;;;;;;;3.37;88.24;98348.69;5089527;28;20686;-71
2023/01/24 10:27:26;;;;;;;21.33;10.83;;;;;;;3.47;88.39;98353.00;5086717;28;20215;-71
2023/01/24 10:30:12;;;;;;;13.47;7.40;;;;;;;2.94;88.73;98335.72;5089192;28;20213;-72
2023/01/24 10:32:43;;;;;;;17.07;9.73;;;;;;;2.98;89.70;98344.28;5089019;28;20181;-72
2023/01/24 10:35:50;;;;;;;18.73;10.00;;;;;;;2.95;90.62;98324.63;5086671;28;20185;-72
2023/01/24 10:39:11;;;;;;;18.77;10.17;;;;;;;3.44;89.34;98325.69;5088529;28;20259;-71
2023/01/24 10:42:20;;;;;;;19.00;10.60;;;;;;;3.87;88.45;98324.91;5120711;27;20192;-74
2023/01/24 10:45:24;;;;;;;20.67;10.67;;;;;;;3.81;86.81;98319.75;5055389;28;20295;-72
2023/01/24 10:48:14;;;;;;;14.20;8.50;;;;;;;3.67;86.46;98312.94;5085380;28;20216;-73
2023/01/24 10:51:34;;;;;;;16.77;8.63;;;;;;;3.63;87.16;98309.50;5088730;28;20266;-73
2023/01/24 10:55:01;;;;;;;25.00;10.93;;;;;;;3.74;87.77;98307.81;5088626;28;20184;-72
2023/01/24 10:58:20;;;;;;;11.97;7.03;;;;;;;3.49;86.84;98302.63;5087705;28;20281;-74
2023/01/24 11:01:44;;;;;;;16.00;8.90;;;;;;;3.72;86.28;98303.53;5086073;28;20210;-74
2023/01/24 11:05:05;;;;;;;17.10;9.07;;;;;;;3.94;86.14;98301.00;5120288;27;20221;-73
2023/01/24 11:08:26;;;;;;;17.83;10.27;;;;;;;4.23;85.25;98298.41;5086178;28;20190;-72
2023/01/24 11:12:01;;;;;;;17.03;9.00;;;;;;;4.11;83.89;98295.88;5085351;28;20279;-73
2023/01/24 11:15:22;;;;;;;18.17;8.97;;;;;;;4.20;83.83;98295.88;5085051;28;20196;-72
2023/01/24 11:18:47;;;;;;;14.50;8.80;;;;;;;4.28;83.34;98283.91;5087218;28;20219;-71
2023/01/24 11:22:10;;;;;;;20.73;10.30;;;;;;;4.23;84.44;98265.09;5086004;28;20581;-72
2023/01/24 11:25:33;;;;;;;12.40;7.13;;;;;;;4.08;83.83;98265.97;5088141;28;20189;-74
2023/01/24 11:29:06;;;;;;;12.93;7.27;;;;;;;4.27;83.00;98273.63;5084695;28;20200;-74
2023/01/24 11:32:12;;;;;;;15.33;7.67;;;;;;;4.29;83.27;98269.34;5084462;28;20207;-72
2023/01/24 11:35:31;;;;;;;13.63;7.80;;;;;;;4.22;82.71;98259.97;5087703;28;20547;-72
2023/01/24 11:38:15;;;;;;;12.70;6.87;;;;;;;4.24;82.51;98264.25;5087864;28;20221;-72
2023/01/24 11:41:48;;;;;;;14.37;7.17;;;;;;;4.34;82.27;98260.81;5069967;28;20220;-73
2023/01/24 11:45:04;;;;;;;14.10;7.30;;;;;;;4.17;81.78;98267.66;5086800;28;20223;-73
2023/01/24 11:48:04;;;;;;;12.00;7.60;;;;;;;4.18;82.07;98264.25;5070752;28;20193;-72
2023/01/24 11:51:34;;;;;;;14.57;7.23;;;;;;;4.22;82.98;98262.53;5087279;28;20188;-72
2023/01/24 11:54:50;;;;;;;11.93;7.13;;;;;;;4.13;83.33;98258.28;5086617;28;20472;-71
2023/01/24 11:57:47;;;;;;;10.57;6.03;;;;;;;4.14;83.25;98257.44;5069798;28;20250;-72
2023/01/24 12:00:57;;;;;;;13.13;7.00;;;;;;;4.17;83.21;98257.41;5087260;28;20218;-71
2023/01/24 12:04:16;;;;;;;12.97;6.80;;;;;;;4.12;83.78;98265.09;5086794;28;20264;-72
2023/01/24 12:06:59;;;;;;;17.00;9.20;;;;;;;4.20;83.97;98270.25;5118224;27;20290;-71
2023/01/24 12:10:29;;;;;;;12.83;7.20;;;;;;;4.17;83.92;98254.00;5084867;28;20224;-74
2023/01/24 12:13:36;;;;;;;16.33;9.43;;;;;;;4.17;84.41;98266.81;5087146;28;20196;-72
2023/01/24 12:16:23;;;;;;;16.37;9.87;;;;;;;4.31;85.01;98265.94;5084866;28;20188;-73
2023/01/24 12:19:38;;;;;;;17.00;9.17;;;;;;;4.43;84.06;98273.59;5086114;28;20232;-72
2023/01/24 12:22:59;;;;;;;19.00;10.10;;;;;;;4.52;82.36;98268.47;5084339;28;20730;-71
2023/01/24 12:26:19;;;;;;;15.23;8.53;;;;;;;4.15;84.10;98269.38;5087117;28;20200;-73
2023/01/24 12:29:40;;;;;;;17.23;9.57;;;;;;;4.31;84.30;98267.66;5086439;28;20293;-72
2023/01/24 12:32:41;;;;;;;23.83;11.47;;;;;;;4.08;85.08;98278.78;5085658;28;20185;-73
2023/01/24 12:36:04;;;;;;;14.47;9.50;;;;;;;4.34;83.26;98271.06;5087930;27;20232;-74
2023/01/24 12:39:25;;;;;;;17.07;10.53;;;;;;;4.46;83.84;98258.22;5084493;28;20742;-73
2023/01/24 12:42:43;;;;;;;17.57;9.97;;;;;;;4.79;82.98;98270.09;5084650;28;20626;-74
2023/01/24 12:46:07;;;;;;;16.87;8.93;;;;;;;4.38;82.33;98269.34;5085828;28;20199;-74
2023/01/24 12:49:03;;;;;;;21.00;10.63;;;;;;;4.13;83.51;98263.41;5083754;28;20278;-73
2023/01/24 12:52:16;;;;;;;15.37;8.23;;;;;;;4.25;84.51;98273.63;5069154;28;20194;-73
2023/01/24 12:55:45;;;;;;;16.73;8.90;;;;;;;4.28;82.88;98265.97;5073024;28;20198;-74